オスロ の空港の天気 - METARとTAF

オスロ空港 ( ENGM / OSL ) - ノルウェー アーケシュフース県オスロ
飛行場実況気象(Metar)
観測時間07/22 20:20 CEST (07/22 18:20 UTC)
風向・風速南西 5m/s
視程10km以上
天気現象
なし
気温24℃
湿度47%
気圧1006hPa
METARENGM 221820Z 22009KT 190V250 CAVOK 24/12 Q1006 NOSIG
過去の天気等 Google飛行場航空写真 Wunderground天気予報

過去48時間のMETAR

飛行場予報(TAF)
発表時間: -
22日23時 CEST ~ 23日1時 CEST に徐々に
風向・風速不定 3m/s
23日3時 CEST から 確率 40% で
視程2000m
天気現象散在した霧
全天の8割程度の雲 雲底高度 60m
23日14時 CEST ~ 23日16時 CEST に徐々に
風向・風速南 5m/s
TAF ENGM 2218/2318 19010KT CAVOK
BECMG 2221/2223 VRB05KT
PROB40 2301/2306 2000 BCFG BKN002
BECMG 2312/2314 18010KT